Time;durP1;ratioP1;P1;durP2;ratioP2;P2;SDS_P1;SDS_P2;PMS_P1;PMS_P2;Temp;Humidity;BMP_temperature;BMP_pressure;BME280_temperature;BME280_humidity;BME280_pressure;Samples;Min_cycle;Max_cycle;Signal;HPM_P1;HPM_P2
2023/07/22 00:01:11;;;;;;;3.88;2.90;;;;;;;;;;5073350;28;20059;-70
2023/07/22 00:03:37;;;;;;;3.67;2.85;;;;;;;;;;5072961;28;20063;-71
2023/07/22 00:06:05;;;;;;;4.45;3.13;;;;;;;;;;5073464;28;20493;-71
2023/07/22 00:08:32;;;;;;;4.50;3.03;;;;;;;;;;5072727;28;20094;-70
2023/07/22 00:10:58;;;;;;;4.30;2.90;;;;;;;;;;5072815;28;20056;-71
2023/07/22 00:13:26;;;;;;;3.63;2.92;;;;;;;;;;5072844;28;20045;-71
2023/07/22 00:15:53;;;;;;;5.65;3.17;;;;;;;;;;5073291;28;20194;-70
2023/07/22 00:18:20;;;;;;;5.15;3.35;;;;;;;;;;5072703;28;20040;-70
2023/07/22 00:20:46;;;;;;;4.07;3.10;;;;;;;;;;5073096;28;20045;-70
2023/07/22 00:23:15;;;;;;;4.22;3.10;;;;;;;;;;5072988;28;20136;-70
2023/07/22 00:25:41;;;;;;;4.80;3.08;;;;;;;;;;5073222;28;20060;-71
2023/07/22 00:28:08;;;;;;;3.53;3.08;;;;;;;;;;5073533;28;20208;-70
2023/07/22 00:30:36;;;;;;;4.90;2.95;;;;;;;;;;5072648;28;20049;-69
2023/07/22 00:33:03;;;;;;;6.47;3.45;;;;;;;;;;5072924;28;20126;-69
2023/07/22 00:35:29;;;;;;;4.25;3.10;;;;;;;;;;5072676;28;20399;-71
2023/07/22 00:37:56;;;;;;;3.75;3.05;;;;;;;;;;5072976;28;20131;-70
2023/07/22 00:40:23;;;;;;;3.85;3.17;;;;;;;;;;5072463;28;20040;-70
2023/07/22 00:42:50;;;;;;;4.65;3.05;;;;;;;;;;5073024;28;20138;-70
2023/07/22 00:45:17;;;;;;;3.67;3.25;;;;;;;;;;5072524;28;20044;-70
2023/07/22 00:47:46;;;;;;;3.85;2.83;;;;;;;;;;5072331;28;20092;-71
2023/07/22 00:50:12;;;;;;;4.18;3.60;;;;;;;;;;5071596;28;20055;-71
2023/07/22 00:52:39;;;;;;;4.13;3.30;;;;;;;;;;5072467;28;20040;-71
2023/07/22 00:55:06;;;;;;;4.00;3.15;;;;;;;;;;5072235;28;20143;-71
2023/07/22 00:57:33;;;;;;;4.15;3.40;;;;;;;;;;5071641;28;20051;-70
2023/07/22 00:59:59;;;;;;;4.55;3.20;;;;;;;;;;5071616;28;20046;-70
2023/07/22 01:02:26;;;;;;;3.50;2.80;;;;;;;;;;5072323;28;20040;-70
2023/07/22 01:04:54;;;;;;;4.72;3.58;;;;;;;;;;5071990;28;20048;-69
2023/07/22 01:07:21;;;;;;;4.32;3.30;;;;;;;;;;5072168;28;20049;-69
2023/07/22 01:09:48;;;;;;;4.38;3.30;;;;;;;;;;5071967;28;20052;-69
2023/07/22 01:12:15;;;;;;;5.30;3.47;;;;;;;;;;5071912;28;20436;-69
2023/07/22 01:14:42;;;;;;;4.10;3.22;;;;;;;;;;5072372;28;20048;-69
2023/07/22 01:17:11;;;;;;;4.03;3.28;;;;;;;;;;5071505;28;20108;-69
2023/07/22 01:19:38;;;;;;;3.67;3.10;;;;;;;;;;5071965;28;20056;-70
2023/07/22 01:22:08;;;;;;;4.78;3.40;;;;;;;;;;5072124;28;20269;-70
2023/07/22 01:24:36;;;;;;;3.78;3.30;;;;;;;;;;5072366;28;20044;-70
2023/07/22 01:27:07;;;;;;;5.22;3.38;;;;;;;;;;5071656;28;20052;-70
2023/07/22 01:29:34;;;;;;;3.72;3.08;;;;;;;;;;5071465;28;20048;-70
2023/07/22 01:32:01;;;;;;;3.88;3.00;;;;;;;;;;5071281;28;20583;-70
2023/07/22 01:34:27;;;;;;;3.97;3.20;;;;;;;;;;5072007;28;20053;-70
2023/07/22 01:36:54;;;;;;;4.50;3.47;;;;;;;;;;5071438;28;20508;-70
2023/07/22 01:39:21;;;;;;;6.75;3.80;;;;;;;;;;5071767;28;20044;-71
2023/07/22 01:41:49;;;;;;;4.15;3.08;;;;;;;;;;5071499;28;20056;-69
2023/07/22 01:44:16;;;;;;;4.82;3.38;;;;;;;;;;5071703;28;20070;-70
2023/07/22 01:46:42;;;;;;;4.65;3.30;;;;;;;;;;5071395;28;20516;-70
2023/07/22 01:49:12;;;;;;;3.70;3.33;;;;;;;;;;5071311;28;20040;-70
2023/07/22 01:51:40;;;;;;;6.18;3.58;;;;;;;;;;5071323;28;20422;-70
2023/07/22 01:54:07;;;;;;;4.05;3.15;;;;;;;;;;5070994;28;20603;-70
2023/07/22 01:56:34;;;;;;;5.15;3.20;;;;;;;;;;5071327;28;20081;-70
2023/07/22 01:59:02;;;;;;;4.53;3.42;;;;;;;;;;5070447;28;20052;-70
2023/07/22 02:01:29;;;;;;;5.43;3.80;;;;;;;;;;5070908;28;20049;-70
2023/07/22 02:03:55;;;;;;;4.32;3.45;;;;;;;;;;5070798;28;20056;-71
2023/07/22 02:06:22;;;;;;;4.13;3.42;;;;;;;;;;5071190;28;20041;-70
2023/07/22 02:08:49;;;;;;;4.30;3.85;;;;;;;;;;5070626;28;20078;-70
2023/07/22 02:11:16;;;;;;;5.57;4.38;;;;;;;;;;5070476;28;20049;-70
2023/07/22 02:13:42;;;;;;;5.75;4.10;;;;;;;;;;5070267;28;20055;-70
2023/07/22 02:16:11;;;;;;;6.22;4.40;;;;;;;;;;5070836;28;20052;-69
2023/07/22 02:18:38;;;;;;;5.18;3.92;;;;;;;;;;5070670;28;20051;-69
2023/07/22 02:21:04;;;;;;;5.47;4.22;;;;;;;;;;5070469;28;20520;-70
2023/07/22 02:23:31;;;;;;;5.40;4.28;;;;;;;;;;5070880;28;20409;-70
2023/07/22 02:25:57;;;;;;;5.90;4.03;;;;;;;;;;5070092;28;20421;-70
2023/07/22 02:28:24;;;;;;;4.85;4.18;;;;;;;;;;5070921;28;20045;-70
2023/07/22 02:30:52;;;;;;;5.95;4.20;;;;;;;;;;5069973;28;20044;-71
2023/07/22 02:33:21;;;;;;;5.72;4.10;;;;;;;;;;5071206;28;20048;-70
2023/07/22 02:35:48;;;;;;;7.22;4.03;;;;;;;;;;5070473;28;20051;-70
2023/07/22 02:38:15;;;;;;;4.50;4.05;;;;;;;;;;5070561;28;20041;-70
2023/07/22 02:40:42;;;;;;;5.20;4.10;;;;;;;;;;5069927;28;20051;-70
2023/07/22 02:43:08;;;;;;;6.22;3.97;;;;;;;;;;5070870;28;20457;-69
2023/07/22 02:45:37;;;;;;;4.13;3.58;;;;;;;;;;5070211;28;20405;-70
2023/07/22 02:48:04;;;;;;;5.57;4.03;;;;;;;;;;5070622;28;20051;-70
2023/07/22 02:50:32;;;;;;;6.40;4.40;;;;;;;;;;5069910;28;20051;-71
2023/07/22 02:52:59;;;;;;;4.38;3.97;;;;;;;;;;5070158;28;20522;-71
2023/07/22 02:55:26;;;;;;;5.15;3.67;;;;;;;;;;5070344;28;20075;-70
2023/07/22 02:57:52;;;;;;;5.50;4.10;;;;;;;;;;5070335;28;20045;-70
2023/07/22 03:00:23;;;;;;;5.70;3.90;;;;;;;;;;5070336;28;20483;-70
2023/07/22 03:02:50;;;;;;;4.22;3.63;;;;;;;;;;5070495;28;20509;-69
2023/07/22 03:05:16;;;;;;;5.75;4.00;;;;;;;;;;5070754;28;20059;-69
2023/07/22 03:07:44;;;;;;;6.50;3.65;;;;;;;;;;5069335;28;20056;-69
2023/07/22 03:10:11;;;;;;;5.70;4.43;;;;;;;;;;5070031;28;20040;-70
2023/07/22 03:12:38;;;;;;;5.32;4.07;;;;;;;;;;5069681;28;20317;-69
2023/07/22 03:15:08;;;;;;;5.53;3.85;;;;;;;;;;5070078;28;20408;-69
2023/07/22 03:17:35;;;;;;;4.93;3.90;;;;;;;;;;5069692;28;20059;-69
2023/07/22 03:20:01;;;;;;;7.10;4.25;;;;;;;;;;5069061;28;20107;-70
2023/07/22 03:22:28;;;;;;;5.45;4.03;;;;;;;;;;5069889;28;20056;-70
2023/07/22 03:24:56;;;;;;;5.20;3.80;;;;;;;;;;5070217;28;20045;-69
2023/07/22 03:27:22;;;;;;;5.70;4.00;;;;;;;;;;5069498;28;20041;-71
2023/07/22 03:29:49;;;;;;;6.15;4.00;;;;;;;;;;5069826;28;20416;-72
2023/07/22 03:32:15;;;;;;;5.28;4.13;;;;;;;;;;5069618;28;20041;-71
2023/07/22 03:34:42;;;;;;;6.00;3.72;;;;;;;;;;5069684;28;20048;-71
2023/07/22 03:37:09;;;;;;;4.47;3.60;;;;;;;;;;5070122;28;20056;-71
2023/07/22 03:39:36;;;;;;;6.20;4.13;;;;;;;;;;5069370;28;20390;-71
2023/07/22 03:42:04;;;;;;;5.22;4.15;;;;;;;;;;5070555;28;20486;-71
2023/07/22 03:44:31;;;;;;;5.53;4.22;;;;;;;;;;5069269;28;20402;-71
2023/07/22 03:46:58;;;;;;;5.35;4.43;;;;;;;;;;5069675;28;20044;-71
2023/07/22 03:49:24;;;;;;;5.40;4.00;;;;;;;;;;5069029;28;20049;-71
2023/07/22 03:51:51;;;;;;;5.80;4.10;;;;;;;;;;5069841;28;20044;-71
2023/07/22 03:54:17;;;;;;;6.32;4.15;;;;;;;;;;5092519;22;20040;-68
2023/07/22 03:56:44;;;;;;;5.00;3.92;;;;;;;;;;5091184;28;20135;-66
2023/07/22 03:59:12;;;;;;;7.03;4.60;;;;;;;;;;5089987;28;20044;-66
2023/07/22 04:01:38;;;;;;;7.97;4.82;;;;;;;;;;5089644;28;20040;-67
2023/07/22 04:04:05;;;;;;;7.03;4.53;;;;;;;;;;5089398;28;20048;-70
2023/07/22 04:06:31;;;;;;;8.80;4.13;;;;;;;;;;5090682;28;20055;-71
2023/07/22 04:09:00;;;;;;;7.15;4.78;;;;;;;;;;5090139;28;20132;-68
2023/07/22 04:11:26;;;;;;;7.60;4.65;;;;;;;;;;5089785;28;20052;-67
2023/07/22 04:13:53;;;;;;;7.57;4.70;;;;;;;;;;5090747;28;20040;-69
2023/07/22 04:16:21;;;;;;;5.57;4.18;;;;;;;;;;5089525;28;20516;-71
2023/07/22 04:18:47;;;;;;;6.75;4.55;;;;;;;;;;5090262;28;20382;-67
2023/07/22 04:21:14;;;;;;;5.93;4.32;;;;;;;;;;5089276;28;20412;-68
2023/07/22 04:23:40;;;;;;;6.40;4.30;;;;;;;;;;5089942;28;20509;-67
2023/07/22 04:26:07;;;;;;;5.45;4.70;;;;;;;;;;5089825;28;20056;-69
2023/07/22 04:28:34;;;;;;;8.57;4.20;;;;;;;;;;5090215;28;20048;-67
2023/07/22 04:31:01;;;;;;;8.38;4.70;;;;;;;;;;5088838;28;20040;-68
2023/07/22 04:33:30;;;;;;;7.45;4.97;;;;;;;;;;5095476;28;20110;-67
2023/07/22 04:35:58;;;;;;;7.68;4.97;;;;;;;;;;5095683;28;20050;-71
2023/07/22 04:38:26;;;;;;;9.60;4.97;;;;;;;;;;5095350;28;20059;-68
2023/07/22 04:40:52;;;;;;;5.93;4.32;;;;;;;;;;5095220;28;20044;-67
2023/07/22 04:43:19;;;;;;;6.07;4.40;;;;;;;;;;5094824;28;20044;-70
2023/07/22 04:45:47;;;;;;;7.97;5.07;;;;;;;;;;5094861;28;20108;-71
2023/07/22 04:48:15;;;;;;;9.75;5.18;;;;;;;;;;5094967;28;20040;-68
2023/07/22 04:50:44;;;;;;;8.20;5.00;;;;;;;;;;5094938;28;20048;-68
2023/07/22 04:53:12;;;;;;;8.50;4.95;;;;;;;;;;5093189;28;20067;-68
2023/07/22 04:55:39;;;;;;;6.72;5.05;;;;;;;;;;5092996;28;20093;-69
2023/07/22 04:58:20;;;;;;;8.25;5.28;;;;;;;;;;5093108;28;20086;-67
2023/07/22 05:00:48;;;;;;;6.97;4.32;;;;;;;;;;5092601;28;20054;-69
2023/07/22 05:03:15;;;;;;;5.82;4.65;;;;;;;;;;5093130;28;20428;-67
2023/07/22 05:05:43;;;;;;;6.70;4.43;;;;;;;;;;5093352;28;20086;-68
2023/07/22 05:08:10;;;;;;;6.72;4.40;;;;;;;;;;5092395;28;20044;-67
2023/07/22 05:10:37;;;;;;;5.50;4.68;;;;;;;;;;5092514;28;20425;-67
2023/07/22 05:13:04;;;;;;;7.00;4.85;;;;;;;;;;5092400;28;20055;-67
2023/07/22 05:15:31;;;;;;;5.90;4.63;;;;;;;;;;5092864;28;20055;-67
2023/07/22 05:17:58;;;;;;;5.20;4.45;;;;;;;;;;5092053;28;20126;-69
2023/07/22 05:20:24;;;;;;;5.40;4.60;;;;;;;;;;5092272;28;20066;-67
2023/07/22 05:22:52;;;;;;;5.28;4.28;;;;;;;;;;5092229;28;20070;-68
2023/07/22 05:25:19;;;;;;;6.85;4.50;;;;;;;;;;5092194;28;20054;-69
2023/07/22 05:27:45;;;;;;;8.30;4.75;;;;;;;;;;5091984;28;20042;-74
2023/07/22 05:30:12;;;;;;;9.07;4.50;;;;;;;;;;5092206;28;20048;-69
2023/07/22 05:32:38;;;;;;;7.10;4.90;;;;;;;;;;5092592;28;20331;-67
2023/07/22 05:35:06;;;;;;;6.68;4.93;;;;;;;;;;5092041;28;20058;-70
2023/07/22 05:37:33;;;;;;;6.88;4.72;;;;;;;;;;5092249;28;20052;-68
2023/07/22 05:40:01;;;;;;;7.72;4.55;;;;;;;;;;5091652;28;20489;-66
2023/07/22 05:42:28;;;;;;;6.22;4.82;;;;;;;;;;5092045;28;20048;-65
2023/07/22 05:44:56;;;;;;;6.25;4.43;;;;;;;;;;5091925;28;20066;-66
2023/07/22 05:47:22;;;;;;;6.30;4.80;;;;;;;;;;5092002;28;20435;-70
2023/07/22 05:49:49;;;;;;;6.85;4.85;;;;;;;;;;5091151;28;20044;-67
2023/07/22 05:52:16;;;;;;;6.57;4.65;;;;;;;;;;5091510;28;20050;-66
2023/07/22 05:54:42;;;;;;;6.72;4.78;;;;;;;;;;5091508;28;20395;-65
2023/07/22 05:57:10;;;;;;;5.20;4.50;;;;;;;;;;5091795;28;20052;-67
2023/07/22 05:59:36;;;;;;;5.13;4.15;;;;;;;;;;5090722;28;20050;-70
2023/07/22 06:02:04;;;;;;;6.45;4.43;;;;;;;;;;5091798;28;20044;-67
2023/07/22 06:04:30;;;;;;;7.40;4.15;;;;;;;;;;5091406;28;20134;-69
2023/07/22 06:06:57;;;;;;;4.93;4.20;;;;;;;;;;5091334;28;20066;-69
2023/07/22 06:09:24;;;;;;;4.90;3.83;;;;;;;;;;5091907;28;20048;-65
2023/07/22 06:11:50;;;;;;;6.93;4.22;;;;;;;;;;5091448;28;20052;-66
2023/07/22 06:14:18;;;;;;;5.95;3.88;;;;;;;;;;5091906;28;20052;-71
2023/07/22 06:16:45;;;;;;;5.53;3.72;;;;;;;;;;5091083;28;20412;-70
2023/07/22 06:19:11;;;;;;;6.68;4.20;;;;;;;;;;5091328;28;20489;-68
2023/07/22 06:21:38;;;;;;;4.45;4.05;;;;;;;;;;5090749;28;20506;-66
2023/07/22 06:24:06;;;;;;;5.80;4.05;;;;;;;;;;5091544;28;20133;-66
2023/07/22 06:26:32;;;;;;;5.72;3.80;;;;;;;;;;5090834;28;20105;-65
2023/07/22 06:28:59;;;;;;;5.22;4.20;;;;;;;;;;5091815;28;20048;-65
2023/07/22 06:31:30;;;;;;;4.25;3.85;;;;;;;;;;5090577;28;20051;-66
2023/07/22 06:33:56;;;;;;;4.72;4.07;;;;;;;;;;5091226;28;20413;-67
2023/07/22 06:36:24;;;;;;;9.48;4.82;;;;;;;;;;5090586;28;20044;-67
2023/07/22 06:38:50;;;;;;;11.18;7.13;;;;;;;;;;5091171;28;20048;-66
2023/07/22 06:41:17;;;;;;;8.68;5.75;;;;;;;;;;5090343;28;20126;-70
2023/07/22 06:43:44;;;;;;;14.68;9.10;;;;;;;;;;5091110;28;20040;-72
2023/07/22 06:46:11;;;;;;;4.93;4.03;;;;;;;;;;5090824;28;20048;-68
2023/07/22 06:48:39;;;;;;;8.10;4.40;;;;;;;;;;5090307;28;20051;-66
2023/07/22 06:51:05;;;;;;;5.80;3.38;;;;;;;;;;5090668;28;20050;-66
2023/07/22 06:53:32;;;;;;;5.15;3.85;;;;;;;;;;5089988;28;20044;-66
2023/07/22 06:55:58;;;;;;;4.55;3.80;;;;;;;;;;5090349;28;20048;-68
2023/07/22 06:58:27;;;;;;;4.72;3.75;;;;;;;;;;5090419;28;20058;-67
2023/07/22 07:00:54;;;;;;;4.15;3.55;;;;;;;;;;5090242;28;20044;-69
2023/07/22 07:03:21;;;;;;;4.93;4.03;;;;;;;;;;5090379;28;20055;-70
2023/07/22 07:05:54;;;;;;;4.70;3.58;;;;;;;;;;5090955;28;20076;-67
2023/07/22 07:08:20;;;;;;;5.15;3.38;;;;;;;;;;5090424;28;20386;-66
2023/07/22 07:10:47;;;;;;;4.97;3.45;;;;;;;;;;5090189;28;20050;-71
2023/07/22 07:13:14;;;;;;;4.57;3.80;;;;;;;;;;5090452;28;20070;-66
2023/07/22 07:15:41;;;;;;;4.47;3.60;;;;;;;;;;5091169;28;20068;-67
2023/07/22 07:18:08;;;;;;;4.57;3.70;;;;;;;;;;5090248;28;20052;-68
2023/07/22 07:20:35;;;;;;;5.50;3.90;;;;;;;;;;5090488;28;20139;-69
2023/07/22 07:23:03;;;;;;;6.07;3.90;;;;;;;;;;5090617;28;20044;-68
2023/07/22 07:25:29;;;;;;;4.40;3.45;;;;;;;;;;5090052;28;20130;-69
2023/07/22 07:27:56;;;;;;;5.05;3.25;;;;;;;;;;5090077;28;20049;-69
2023/07/22 07:30:22;;;;;;;3.83;3.33;;;;;;;;;;5090053;28;20040;-66
2023/07/22 07:32:50;;;;;;;5.32;3.53;;;;;;;;;;5090568;28;20424;-68
2023/07/22 07:35:16;;;;;;;4.82;3.60;;;;;;;;;;5090081;28;20044;-66
2023/07/22 07:37:43;;;;;;;5.38;3.65;;;;;;;;;;5090023;28;20044;-67
2023/07/22 07:40:13;;;;;;;7.88;4.05;;;;;;;;;;5089384;28;20054;-70
2023/07/22 07:42:40;;;;;;;3.80;3.50;;;;;;;;;;5090049;28;20054;-70
2023/07/22 07:45:07;;;;;;;5.30;3.63;;;;;;;;;;5089803;28;20135;-67
2023/07/22 07:47:34;;;;;;;4.65;3.50;;;;;;;;;;5090181;28;20123;-67
2023/07/22 07:50:01;;;;;;;4.88;3.70;;;;;;;;;;5089520;28;20048;-66
2023/07/22 07:52:27;;;;;;;4.65;3.50;;;;;;;;;;5090552;28;20044;-68
2023/07/22 07:54:54;;;;;;;4.55;3.53;;;;;;;;;;5089821;28;20074;-69
2023/07/22 07:57:22;;;;;;;4.97;3.75;;;;;;;;;;5089925;28;20520;-69
2023/07/22 07:59:48;;;;;;;6.53;3.78;;;;;;;;;;5090770;28;20074;-69
2023/07/22 08:02:15;;;;;;;6.32;4.30;;;;;;;;;;5089936;28;20044;-70
2023/07/22 08:04:41;;;;;;;8.23;4.85;;;;;;;;;;5089939;28;20050;-69
2023/07/22 08:07:08;;;;;;;7.47;3.78;;;;;;;;;;5093204;28;20048;-68
2023/07/22 08:09:35;;;;;;;5.22;3.70;;;;;;;;;;5093295;28;20049;-69
2023/07/22 08:12:03;;;;;;;9.93;4.38;;;;;;;;;;5093464;28;20087;-68
2023/07/22 08:14:31;;;;;;;5.70;4.13;;;;;;;;;;5093976;28;20477;-69
2023/07/22 08:16:58;;;;;;;6.63;4.10;;;;;;;;;;5093229;28;20098;-69
2023/07/22 08:19:24;;;;;;;4.75;3.58;;;;;;;;;;5093792;28;20044;-69
2023/07/22 08:21:51;;;;;;;5.80;3.83;;;;;;;;;;5093097;28;20048;-72
2023/07/22 08:24:18;;;;;;;10.48;3.95;;;;;;;;;;5093783;28;20406;-69
2023/07/22 08:26:44;;;;;;;6.38;3.65;;;;;;;;;;5093630;28;20331;-71
2023/07/22 08:29:11;;;;;;;5.95;3.50;;;;;;;;;;5093608;28;20490;-70
2023/07/22 08:31:39;;;;;;;6.20;4.00;;;;;;;;;;5092674;28;20052;-68
2023/07/22 08:34:06;;;;;;;5.80;4.28;;;;;;;;;;5092972;28;20046;-69
2023/07/22 08:36:32;;;;;;;4.35;3.35;;;;;;;;;;5093774;28;20344;-71
2023/07/22 08:38:59;;;;;;;4.45;3.40;;;;;;;;;;5092365;28;20040;-70
2023/07/22 08:41:26;;;;;;;5.32;3.30;;;;;;;;;;5093093;28;20044;-68
2023/07/22 08:43:55;;;;;;;4.65;3.00;;;;;;;;;;5092674;28;20095;-69
2023/07/22 08:46:24;;;;;;;5.80;3.22;;;;;;;;;;5093132;28;20044;-68
2023/07/22 08:48:54;;;;;;;4.38;3.40;;;;;;;;;;5092414;28;20512;-69
2023/07/22 08:51:23;;;;;;;5.70;3.10;;;;;;;;;;5092169;28;20044;-68
2023/07/22 08:53:51;;;;;;;5.85;3.30;;;;;;;;;;5092272;28;20105;-69
2023/07/22 08:56:18;;;;;;;3.85;3.15;;;;;;;;;;5092852;28;20048;-69
2023/07/22 08:58:47;;;;;;;6.15;3.47;;;;;;;;;;5092137;28;20048;-68
2023/07/22 09:01:14;;;;;;;4.63;3.10;;;;;;;;;;5092473;28;20052;-69
2023/07/22 09:03:41;;;;;;;3.67;3.15;;;;;;;;;;5092163;28;20048;-68
2023/07/22 09:06:10;;;;;;;6.78;3.00;;;;;;;;;;5092511;28;20063;-68
2023/07/22 09:08:38;;;;;;;5.10;2.92;;;;;;;;;;5092312;28;20449;-68
2023/07/22 09:11:05;;;;;;;5.40;3.17;;;;;;;;;;5092388;28;20528;-68
2023/07/22 09:13:32;;;;;;;5.20;3.10;;;;;;;;;;5092429;28;20055;-68
2023/07/22 09:15:59;;;;;;;4.03;2.92;;;;;;;;;;5092825;28;20060;-68
2023/07/22 09:18:25;;;;;;;5.93;3.35;;;;;;;;;;5091549;28;20102;-68
2023/07/22 09:20:52;;;;;;;3.38;2.78;;;;;;;;;;5091867;28;20445;-68
2023/07/22 09:23:33;;;;;;;4.55;3.10;;;;;;;;;;5092538;28;20048;-68
2023/07/22 09:26:10;;;;;;;7.10;3.05;;;;;;;;;;5091898;28;20048;-68
2023/07/22 09:28:49;;;;;;;6.45;3.55;;;;;;;;;;5092409;28;20047;-69
2023/07/22 09:31:15;;;;;;;3.85;2.92;;;;;;;;;;5091980;28;20063;-68
2023/07/22 09:33:42;;;;;;;6.00;3.17;;;;;;;;;;5092476;28;20040;-68
2023/07/22 09:36:11;;;;;;;4.90;2.88;;;;;;;;;;5091809;28;20048;-68
2023/07/22 09:38:39;;;;;;;5.93;2.78;;;;;;;;;;5092062;28;20044;-68
2023/07/22 09:41:06;;;;;;;4.60;2.92;;;;;;;;;;5091341;28;20058;-69
2023/07/22 09:43:38;;;;;;;3.60;2.85;;;;;;;;;;5091821;28;20050;-69
2023/07/22 09:46:09;;;;;;;4.57;3.30;;;;;;;;;;5091512;28;20051;-68
2023/07/22 09:48:42;;;;;;;3.10;2.67;;;;;;;;;;5091821;28;20067;-67
2023/07/22 09:51:13;;;;;;;4.28;2.90;;;;;;;;;;5091305;28;20052;-68
2023/07/22 09:53:46;;;;;;;4.53;3.20;;;;;;;;;;5102367;22;20040;-68
2023/07/22 09:56:13;;;;;;;5.35;3.00;;;;;;;;;;5091130;28;20326;-68
2023/07/22 09:58:41;;;;;;;4.20;3.05;;;;;;;;;;5091668;28;20073;-66
2023/07/22 10:01:08;;;;;;;3.92;3.00;;;;;;;;;;5091104;28;20040;-68
2023/07/22 10:03:39;;;;;;;5.05;3.35;;;;;;;;;;5091811;28;20066;-68
2023/07/22 10:06:06;;;;;;;4.70;2.70;;;;;;;;;;5091586;28;20044;-68
2023/07/22 10:08:35;;;;;;;4.47;3.35;;;;;;;;;;5090835;28;20043;-68
2023/07/22 10:11:09;;;;;;;3.63;2.85;;;;;;;;;;5091158;28;20282;-68
2023/07/22 10:13:37;;;;;;;4.47;3.00;;;;;;;;;;5091232;28;20495;-68
2023/07/22 10:16:04;;;;;;;4.95;3.20;;;;;;;;;;5091464;28;20435;-68
2023/07/22 10:18:32;;;;;;;6.95;3.40;;;;;;;;;;5090980;28;20412;-69
2023/07/22 10:21:00;;;;;;;5.45;3.22;;;;;;;;;;5090775;28;20048;-68
2023/07/22 10:23:28;;;;;;;3.45;3.00;;;;;;;;;;5090682;28;20040;-68
2023/07/22 10:25:55;;;;;;;3.63;2.80;;;;;;;;;;5091454;28;20055;-67
2023/07/22 10:28:23;;;;;;;5.38;3.20;;;;;;;;;;5090482;28;20192;-68
2023/07/22 10:30:50;;;;;;;4.32;3.10;;;;;;;;;;5090140;28;20055;-68
2023/07/22 10:33:17;;;;;;;3.47;3.17;;;;;;;;;;5090647;28;20051;-67
2023/07/22 10:36:01;;;;;;;4.72;3.15;;;;;;;;;;5090848;28;20052;-67
2023/07/22 10:38:28;;;;;;;3.35;2.90;;;;;;;;;;5090742;28;20047;-68
2023/07/22 10:40:55;;;;;;;3.35;2.67;;;;;;;;;;5090819;28;20044;-66
2023/07/22 10:43:27;;;;;;;3.80;2.42;;;;;;;;;;5090936;28;20051;-67
2023/07/22 10:45:54;;;;;;;;;;;;;;;;;;5091071;28;20044;-67
2023/07/22 10:48:24;;;;;;;4.30;2.60;;;;;;;;;;5090587;28;19920;-66
2023/07/22 10:50:52;;;;;;;4.38;2.85;;;;;;;;;;5090327;28;20130;-68
2023/07/22 10:53:28;;;;;;;3.55;2.88;;;;;;;;;;5090724;28;20065;-66
2023/07/22 10:56:15;;;;;;;4.80;2.92;;;;;;;;;;5090563;28;20047;-68
2023/07/22 10:59:02;;;;;;;4.95;3.50;;;;;;;;;;5090387;28;20048;-66
2023/07/22 11:01:37;;;;;;;4.72;3.20;;;;;;;;;;5090089;28;20040;-67
2023/07/22 11:04:15;;;;;;;3.45;2.80;;;;;;;;;;5089882;28;20056;-65
2023/07/22 11:06:55;;;;;;;5.88;3.20;;;;;;;;;;5090418;28;20076;-68
2023/07/22 11:09:39;;;;;;;3.15;2.72;;;;;;;;;;5090084;28;20040;-67
2023/07/22 11:12:08;;;;;;;3.60;3.28;;;;;;;;;;5090323;28;20052;-67
2023/07/22 11:14:39;;;;;;;4.40;2.83;;;;;;;;;;5089912;28;20467;-67
2023/07/22 11:17:08;;;;;;;3.88;2.67;;;;;;;;;;5090106;28;20044;-67
2023/07/22 11:19:35;;;;;;;4.60;3.00;;;;;;;;;;5089730;28;20047;-67
2023/07/22 11:22:02;;;;;;;4.95;3.10;;;;;;;;;;5089943;28;20055;-68
2023/07/22 11:24:29;;;;;;;4.20;3.25;;;;;;;;;;5090626;28;20445;-66
2023/07/22 11:26:56;;;;;;;3.40;2.60;;;;;;;;;;5089893;28;20079;-68
2023/07/22 11:29:23;;;;;;;5.45;2.85;;;;;;;;;;5090544;28;20044;-67
2023/07/22 11:31:52;;;;;;;3.67;2.70;;;;;;;;;;5089148;28;20494;-67
2023/07/22 11:34:20;;;;;;;3.30;2.90;;;;;;;;;;5090099;28;20052;-67
2023/07/22 11:36:48;;;;;;;4.35;2.88;;;;;;;;;;5089940;28;20044;-65
2023/07/22 11:39:16;;;;;;;4.38;2.67;;;;;;;;;;5090264;28;20478;-68
2023/07/22 11:41:43;;;;;;;4.28;2.75;;;;;;;;;;5092413;28;20048;-68
2023/07/22 11:44:13;;;;;;;3.08;2.45;;;;;;;;;;5094428;28;20159;-67
2023/07/22 11:46:48;;;;;;;3.45;2.80;;;;;;;;;;5094275;28;20052;-68
2023/07/22 11:49:23;;;;;;;4.43;2.65;;;;;;;;;;5094214;28;20047;-67
2023/07/22 11:51:49;;;;;;;3.60;3.15;;;;;;;;;;5093400;28;20052;-67
2023/07/22 11:54:17;;;;;;;3.97;2.65;;;;;;;;;;5094890;28;20413;-67
2023/07/22 11:56:43;;;;;;;3.55;3.03;;;;;;;;;;5094627;28;20459;-66
2023/07/22 11:59:10;;;;;;;4.75;3.13;;;;;;;;;;5094693;28;20048;-67
2023/07/22 12:01:37;;;;;;;4.65;2.78;;;;;;;;;;5094827;28;20066;-65
2023/07/22 12:04:11;;;;;;;4.63;3.30;;;;;;;;;;5094321;28;20406;-67
2023/07/22 12:06:39;;;;;;;5.05;3.20;;;;;;;;;;5094980;28;20040;-65
2023/07/22 12:09:08;;;;;;;3.47;2.72;;;;;;;;;;5094071;28;20044;-64
2023/07/22 12:11:35;;;;;;;5.00;3.40;;;;;;;;;;5094220;28;20416;-67
2023/07/22 12:14:10;;;;;;;3.80;3.13;;;;;;;;;;5094621;28;20051;-65
2023/07/22 12:16:38;;;;;;;4.47;3.13;;;;;;;;;;5094764;28;20132;-66
2023/07/22 12:19:05;;;;;;;4.13;3.13;;;;;;;;;;5094282;28;20048;-66
2023/07/22 12:21:33;;;;;;;4.13;3.25;;;;;;;;;;5094297;28;20047;-67
2023/07/22 12:24:01;;;;;;;5.07;3.35;;;;;;;;;;5093716;28;20040;-68
2023/07/22 12:26:28;;;;;;;4.28;3.40;;;;;;;;;;5094579;28;20486;-67
2023/07/22 12:28:54;;;;;;;3.90;3.45;;;;;;;;;;5093557;28;20052;-67
2023/07/22 12:31:21;;;;;;;4.72;3.20;;;;;;;;;;5093843;28;20048;-68
2023/07/22 12:33:48;;;;;;;4.20;2.90;;;;;;;;;;5094281;28;20044;-67
2023/07/22 12:36:14;;;;;;;5.15;3.03;;;;;;;;;;5093821;28;20047;-65
2023/07/22 12:38:41;;;;;;;6.32;3.20;;;;;;;;;;5093468;28;20054;-67
2023/07/22 12:41:09;;;;;;;7.32;2.65;;;;;;;;;;5094035;28;20050;-67
2023/07/22 12:43:35;;;;;;;3.38;3.03;;;;;;;;;;5094149;28;20040;-67
2023/07/22 12:46:02;;;;;;;4.63;2.70;;;;;;;;;;5093591;28;20050;-67
2023/07/22 12:48:28;;;;;;;3.95;3.03;;;;;;;;;;5094005;28;20327;-68
2023/07/22 12:50:55;;;;;;;3.88;2.72;;;;;;;;;;5093079;28;20055;-68
2023/07/22 12:53:22;;;;;;;4.55;2.80;;;;;;;;;;5092153;28;20066;-68
2023/07/22 12:55:48;;;;;;;2.63;2.38;;;;;;;;;;5092515;28;20386;-67
2023/07/22 12:58:16;;;;;;;3.60;2.95;;;;;;;;;;5092919;28;20556;-67
2023/07/22 13:00:43;;;;;;;4.43;2.90;;;;;;;;;;5091928;28;20127;-67
2023/07/22 13:03:10;;;;;;;4.38;2.65;;;;;;;;;;5092928;28;20040;-68
2023/07/22 13:05:36;;;;;;;3.45;2.80;;;;;;;;;;5092647;28;20136;-68
2023/07/22 13:08:03;;;;;;;4.10;2.72;;;;;;;;;;5092800;28;20062;-67
2023/07/22 13:10:31;;;;;;;3.88;2.60;;;;;;;;;;5091966;28;20081;-67
2023/07/22 13:12:58;;;;;;;3.63;2.70;;;;;;;;;;5092621;28;20060;-68
2023/07/22 13:15:26;;;;;;;3.95;2.78;;;;;;;;;;5092092;28;20044;-66
2023/07/22 13:17:52;;;;;;;2.65;2.45;;;;;;;;;;5092855;28;20099;-68
2023/07/22 13:20:19;;;;;;;3.75;2.40;;;;;;;;;;5091975;28;20056;-68
2023/07/22 13:22:45;;;;;;;3.80;2.50;;;;;;;;;;5092287;28;20139;-68
2023/07/22 13:25:12;;;;;;;5.47;2.72;;;;;;;;;;5092734;28;20501;-68
2023/07/22 13:27:40;;;;;;;2.92;2.58;;;;;;;;;;5091870;28;20040;-68
2023/07/22 13:30:08;;;;;;;3.60;2.72;;;;;;;;;;5091816;28;20472;-67
2023/07/22 13:32:36;;;;;;;2.95;2.53;;;;;;;;;;5091561;28;20070;-67
2023/07/22 13:35:10;;;;;;;5.05;2.83;;;;;;;;;;5099761;28;20093;-68
2023/07/22 13:37:37;;;;;;;3.83;2.67;;;;;;;;;;5101121;28;20496;-67
2023/07/22 13:40:09;;;;;;;7.22;3.70;;;;;;;;;;5092011;28;20481;-67
2023/07/22 13:42:36;;;;;;;5.00;2.92;;;;;;;;;;5091891;28;20048;-67
2023/07/22 13:45:02;;;;;;;3.47;2.90;;;;;;;;;;5092920;28;20044;-67
2023/07/22 13:47:29;;;;;;;3.47;2.40;;;;;;;;;;5092551;28;20056;-68
2023/07/22 13:49:56;;;;;;;3.80;2.50;;;;;;;;;;5092721;28;20050;-67
2023/07/22 13:52:23;;;;;;;6.22;2.55;;;;;;;;;;5092543;28;20050;-67
2023/07/22 13:54:50;;;;;;;3.65;2.50;;;;;;;;;;5092962;28;20044;-68
2023/07/22 13:57:16;;;;;;;3.53;2.60;;;;;;;;;;5092711;28;20087;-68
2023/07/22 13:59:43;;;;;;;3.08;2.55;;;;;;;;;;5092493;28;20062;-67
2023/07/22 14:02:09;;;;;;;2.92;2.60;;;;;;;;;;5092733;28;20109;-68
2023/07/22 14:04:37;;;;;;;3.08;2.47;;;;;;;;;;5091900;28;20050;-68
2023/07/22 14:07:05;;;;;;;5.10;2.75;;;;;;;;;;5092302;28;20050;-67
2023/07/22 14:09:32;;;;;;;4.03;2.45;;;;;;;;;;5091339;28;20416;-68
2023/07/22 14:11:58;;;;;;;3.25;2.83;;;;;;;;;;5092188;28;20113;-67
2023/07/22 14:14:28;;;;;;;4.25;2.90;;;;;;;;;;5091397;28;20058;-66
2023/07/22 14:16:55;;;;;;;2.65;2.28;;;;;;;;;;5092461;28;20040;-65
2023/07/22 14:19:22;;;;;;;4.50;2.55;;;;;;;;;;5092133;28;20058;-66
2023/07/22 14:21:48;;;;;;;4.60;2.60;;;;;;;;;;5092160;28;20040;-66
2023/07/22 14:24:17;;;;;;;3.65;2.50;;;;;;;;;;5092086;28;20073;-66
2023/07/22 14:26:43;;;;;;;3.42;2.60;;;;;;;;;;5092122;28;20407;-67
2023/07/22 14:29:10;;;;;;;3.63;2.17;;;;;;;;;;5091692;28;20044;-67
2023/07/22 14:31:36;;;;;;;4.30;2.42;;;;;;;;;;5091684;28;20044;-67
2023/07/22 14:34:03;;;;;;;3.47;2.70;;;;;;;;;;5092415;28;20047;-66
2023/07/22 14:36:30;;;;;;;5.32;3.10;;;;;;;;;;5091793;28;20105;-67
2023/07/22 14:38:57;;;;;;;4.13;2.60;;;;;;;;;;5092455;28;20054;-66
2023/07/22 14:41:25;;;;;;;4.75;2.67;;;;;;;;;;5091823;28;20158;-67
2023/07/22 14:43:52;;;;;;;2.85;2.50;;;;;;;;;;5092662;28;20043;-67
2023/07/22 14:46:19;;;;;;;4.18;2.78;;;;;;;;;;5092404;28;20058;-67